createdAt,value
2017-01-08T00:00:33.852Z,-89
2017-01-08T00:01:33.939Z,-88
2017-01-08T00:02:33.483Z,-85
2017-01-08T00:05:33.909Z,-85
2017-01-08T00:06:34.267Z,-84
2017-01-08T00:07:33.527Z,-84
2017-01-08T00:08:33.549Z,-86
2017-01-08T00:09:34.266Z,-85
2017-01-08T00:10:33.458Z,-83
2017-01-08T00:11:33.454Z,-83
2017-01-08T00:12:33.635Z,-87
2017-01-08T00:13:33.600Z,-85
2017-01-08T00:14:33.571Z,-85
2017-01-08T00:15:33.660Z,-90
2017-01-08T00:16:33.737Z,-85
2017-01-08T00:17:33.712Z,-87
2017-01-08T00:18:33.630Z,-86
2017-01-08T00:19:34.246Z,-85
2017-01-08T00:20:34.388Z,-94
2017-01-08T00:21:35.215Z,-96
2017-01-08T00:22:34.156Z,-96
2017-01-08T00:23:33.705Z,-96
2017-01-08T00:24:33.536Z,-96
2017-01-08T00:25:33.592Z,-96
2017-01-08T00:26:33.419Z,-96
2017-01-08T00:27:33.472Z,-96
2017-01-08T00:28:33.409Z,-96
2017-01-08T00:29:33.454Z,-95
2017-01-08T00:30:33.457Z,-85
2017-01-08T00:31:33.449Z,-87
2017-01-08T00:32:33.414Z,-86
2017-01-08T00:33:33.376Z,-96
2017-01-08T00:34:33.380Z,-96
2017-01-08T00:35:33.422Z,-96
2017-01-08T00:36:33.454Z,-95
2017-01-08T00:37:33.438Z,-95
2017-01-08T00:38:33.427Z,-96
2017-01-08T00:39:33.313Z,-95
2017-01-08T00:40:33.551Z,-95
2017-01-08T00:41:33.447Z,-95
2017-01-08T00:42:33.375Z,-94
2017-01-08T00:43:33.571Z,-95
2017-01-08T00:44:33.379Z,-93
2017-01-08T00:45:33.415Z,-90
2017-01-08T00:46:33.471Z,-90
2017-01-08T00:47:33.372Z,-95
2017-01-08T00:48:33.403Z,-95
2017-01-08T00:49:33.382Z,-94
2017-01-08T00:50:33.477Z,-94
2017-01-08T00:51:33.423Z,-94
2017-01-08T00:52:33.506Z,-94
2017-01-08T00:53:33.350Z,-94
2017-01-08T00:54:33.416Z,-94
2017-01-08T00:55:33.425Z,-94
2017-01-08T00:56:33.921Z,-95
2017-01-08T00:57:33.525Z,-95
2017-01-08T00:58:33.481Z,-95
2017-01-08T00:59:33.425Z,-93
2017-01-08T01:00:33.367Z,-93
2017-01-08T01:01:33.412Z,-94
2017-01-08T01:02:33.636Z,-93
2017-01-08T01:03:33.554Z,-94
2017-01-08T01:04:33.455Z,-94
2017-01-08T01:05:33.386Z,-93
2017-01-08T01:06:33.437Z,-94
2017-01-08T01:07:33.441Z,-94
2017-01-08T01:08:33.480Z,-94
2017-01-08T01:09:33.386Z,-94
2017-01-08T01:10:33.463Z,-94
2017-01-08T01:11:33.737Z,-94
2017-01-08T01:12:33.516Z,-94
2017-01-08T01:13:33.429Z,-94
2017-01-08T01:14:33.526Z,-94
2017-01-08T01:15:33.489Z,-94
2017-01-08T01:16:33.424Z,-95
2017-01-08T01:17:33.483Z,-94
2017-01-08T01:18:33.538Z,-94
2017-01-08T01:19:33.601Z,-94
2017-01-08T01:20:33.488Z,-95
2017-01-08T01:21:33.539Z,-94
2017-01-08T01:22:33.559Z,-94
2017-01-08T01:23:33.546Z,-96
2017-01-08T01:24:33.521Z,-94
2017-01-08T01:25:33.575Z,-94
2017-01-08T01:26:33.633Z,-95
2017-01-08T01:27:33.623Z,-94
2017-01-08T01:28:33.542Z,-95
2017-01-08T01:29:33.611Z,-94
2017-01-08T01:30:33.623Z,-94
2017-01-08T01:31:33.535Z,-94
2017-01-08T01:32:33.558Z,-95
2017-01-08T01:33:33.496Z,-94
2017-01-08T01:34:33.536Z,-94
2017-01-08T01:35:33.535Z,-94
2017-01-08T01:36:33.543Z,-94
2017-01-08T01:37:33.606Z,-94
2017-01-08T01:38:33.596Z,-94
2017-01-08T01:39:33.711Z,-94
2017-01-08T01:40:33.627Z,-94
2017-01-08T01:41:33.586Z,-93
2017-01-08T01:42:33.764Z,-93
2017-01-08T01:43:33.616Z,-94
2017-01-08T01:44:33.612Z,-94
2017-01-08T01:45:33.646Z,-94
2017-01-08T01:46:33.618Z,-94
2017-01-08T01:47:33.546Z,-94
2017-01-08T01:48:33.499Z,-94
2017-01-08T01:49:33.625Z,-94
2017-01-08T01:50:33.566Z,-94
2017-01-08T01:51:33.595Z,-93
2017-01-08T01:52:33.642Z,-94
2017-01-08T01:53:33.603Z,-94
2017-01-08T01:54:33.630Z,-93
2017-01-08T01:55:33.670Z,-93
2017-01-08T01:56:33.690Z,-93
2017-01-08T01:57:33.597Z,-93
2017-01-08T01:58:33.581Z,-93
2017-01-08T01:59:33.636Z,-93
2017-01-08T02:00:33.607Z,-93
2017-01-08T02:01:33.656Z,-92
2017-01-08T02:02:33.533Z,-93
2017-01-08T02:03:33.726Z,-94
2017-01-08T02:04:33.694Z,-93
2017-01-08T02:05:33.738Z,-93
2017-01-08T02:06:33.627Z,-94
2017-01-08T02:07:33.634Z,-94
2017-01-08T02:08:33.631Z,-93
2017-01-08T02:09:33.612Z,-93
2017-01-08T02:10:33.597Z,-95
2017-01-08T02:11:33.561Z,-93
2017-01-08T02:12:33.665Z,-93
2017-01-08T02:13:33.892Z,-94
2017-01-08T02:14:33.576Z,-93
2017-01-08T02:15:33.658Z,-94
2017-01-08T02:16:33.708Z,-93
2017-01-08T02:17:33.649Z,-93
2017-01-08T02:18:33.644Z,-93
2017-01-08T02:19:33.650Z,-93
2017-01-08T02:20:33.725Z,-93
2017-01-08T02:21:33.657Z,-92
2017-01-08T02:22:33.765Z,-93
2017-01-08T02:23:33.777Z,-93
2017-01-08T02:24:33.733Z,-93
2017-01-08T02:25:33.693Z,-92
2017-01-08T02:26:33.732Z,-92
2017-01-08T02:27:33.784Z,-92
2017-01-08T02:28:33.749Z,-93
2017-01-08T02:29:33.754Z,-92
2017-01-08T02:30:33.740Z,-92
2017-01-08T02:31:33.744Z,-92
2017-01-08T02:32:33.736Z,-92
2017-01-08T02:33:33.701Z,-93
2017-01-08T02:34:33.748Z,-92
2017-01-08T02:35:33.854Z,-93
2017-01-08T02:36:33.746Z,-93
2017-01-08T02:37:33.822Z,-93
2017-01-08T02:38:33.693Z,-92
2017-01-08T02:39:33.849Z,-92
2017-01-08T02:40:33.706Z,-92
2017-01-08T02:41:33.719Z,-92
2017-01-08T02:42:33.697Z,-91
2017-01-08T02:43:33.995Z,-92
2017-01-08T02:44:33.894Z,-92
2017-01-08T02:45:33.775Z,-92
2017-01-08T02:46:33.738Z,-91
2017-01-08T02:47:33.728Z,-92
2017-01-08T02:48:33.722Z,-92
2017-01-08T02:49:33.758Z,-92
2017-01-08T02:50:33.842Z,-92
2017-01-08T02:51:33.818Z,-92
2017-01-08T02:52:33.872Z,-92
2017-01-08T02:53:33.824Z,-92
2017-01-08T02:54:33.678Z,-92
2017-01-08T02:55:33.774Z,-93
2017-01-08T02:56:33.885Z,-92
2017-01-08T02:57:33.692Z,-92
2017-01-08T02:58:33.867Z,-92
2017-01-08T02:59:33.756Z,-92
2017-01-08T03:00:33.864Z,-92
2017-01-08T03:01:33.834Z,-92
2017-01-08T03:02:33.792Z,-92
2017-01-08T03:03:33.763Z,-93
2017-01-08T03:04:33.838Z,-93
2017-01-08T03:05:33.882Z,-92
2017-01-08T03:06:33.856Z,-93
2017-01-08T03:07:33.892Z,-94
2017-01-08T03:08:33.776Z,-93
2017-01-08T03:09:33.823Z,-93
2017-01-08T03:10:33.800Z,-93
2017-01-08T03:11:33.989Z,-94
2017-01-08T03:12:33.787Z,-93
2017-01-08T03:13:33.869Z,-94
2017-01-08T03:14:33.937Z,-93
2017-01-08T03:15:33.903Z,-93
2017-01-08T03:16:33.925Z,-93
2017-01-08T03:17:33.871Z,-94
2017-01-08T03:18:33.878Z,-93
2017-01-08T03:19:33.821Z,-93
2017-01-08T03:20:33.955Z,-94
2017-01-08T03:21:33.954Z,-93
2017-01-08T03:22:33.884Z,-93
2017-01-08T03:23:33.829Z,-93
2017-01-08T03:24:33.827Z,-92
2017-01-08T03:25:33.770Z,-92
2017-01-08T03:26:33.936Z,-91
2017-01-08T03:27:33.933Z,-92
2017-01-08T03:28:33.907Z,-94
2017-01-08T03:29:33.772Z,-94
2017-01-08T03:30:33.865Z,-94
2017-01-08T03:31:33.944Z,-94
2017-01-08T03:32:33.863Z,-93
2017-01-08T03:33:33.905Z,-93
2017-01-08T03:34:33.861Z,-93
2017-01-08T03:35:33.815Z,-93
2017-01-08T03:36:33.882Z,-93
2017-01-08T03:37:33.999Z,-94
2017-01-08T03:38:33.842Z,-93
2017-01-08T03:39:33.922Z,-93
2017-01-08T03:40:33.914Z,-93
2017-01-08T03:41:33.867Z,-94
2017-01-08T03:42:33.860Z,-93
2017-01-08T03:43:33.947Z,-93
2017-01-08T03:44:33.860Z,-94
2017-01-08T03:45:34.064Z,-93
2017-01-08T03:46:34.025Z,-93
2017-01-08T03:47:33.906Z,-93
2017-01-08T03:48:33.889Z,-93
2017-01-08T03:49:33.831Z,-93
2017-01-08T03:50:33.987Z,-94
2017-01-08T03:51:33.878Z,-93
2017-01-08T03:52:33.956Z,-93
2017-01-08T03:53:33.934Z,-93
2017-01-08T03:54:33.898Z,-93
2017-01-08T03:55:34.146Z,-93
2017-01-08T03:56:33.931Z,-94
2017-01-08T03:57:33.913Z,-93
2017-01-08T03:58:34.037Z,-93
2017-01-08T03:59:34.048Z,-93
2017-01-08T04:00:33.850Z,-92
2017-01-08T04:01:33.928Z,-93
2017-01-08T04:02:33.979Z,-92
2017-01-08T04:03:33.877Z,-93
2017-01-08T04:04:34.077Z,-93
2017-01-08T04:05:33.989Z,-92
2017-01-08T04:06:34.108Z,-93
2017-01-08T04:07:34.028Z,-94
2017-01-08T04:08:33.938Z,-92
2017-01-08T04:09:34.078Z,-92
2017-01-08T04:10:34.067Z,-92
2017-01-08T04:11:34.013Z,-92
2017-01-08T04:12:34.079Z,-92
2017-01-08T04:13:34.065Z,-92
2017-01-08T04:14:34.023Z,-92
2017-01-08T04:15:34.161Z,-93
2017-01-08T04:16:34.125Z,-93
2017-01-08T04:17:34.113Z,-92
2017-01-08T04:18:34.019Z,-92
2017-01-08T04:19:34.012Z,-92
2017-01-08T04:20:33.981Z,-92
2017-01-08T04:21:33.977Z,-92
2017-01-08T04:22:34.049Z,-92
2017-01-08T04:23:34.045Z,-92
2017-01-08T04:24:33.970Z,-92
2017-01-08T04:25:34.005Z,-92
2017-01-08T04:26:34.055Z,-91
2017-01-08T04:27:33.913Z,-91
2017-01-08T04:28:34.047Z,-92
2017-01-08T04:29:34.047Z,-92
2017-01-08T04:30:34.222Z,-92
2017-01-08T04:31:34.021Z,-91
2017-01-08T04:32:34.075Z,-92
2017-01-08T04:33:34.168Z,-92
2017-01-08T04:34:33.959Z,-92
2017-01-08T04:35:34.078Z,-91
2017-01-08T04:36:34.130Z,-91
2017-01-08T04:37:33.986Z,-92
2017-01-08T04:38:34.110Z,-92
2017-01-08T04:39:34.083Z,-92
2017-01-08T04:40:34.064Z,-92
2017-01-08T04:41:34.070Z,-92
2017-01-08T04:42:34.079Z,-91
2017-01-08T04:43:34.025Z,-92
2017-01-08T04:44:34.103Z,-92
2017-01-08T04:45:34.025Z,-92
2017-01-08T04:46:34.104Z,-92
2017-01-08T04:47:34.333Z,-92
2017-01-08T04:48:34.040Z,-92
2017-01-08T04:49:34.185Z,-91
2017-01-08T04:50:34.108Z,-92
2017-01-08T04:51:34.103Z,-92
2017-01-08T04:52:34.127Z,-91
2017-01-08T04:53:34.118Z,-91
2017-01-08T04:54:34.066Z,-92
2017-01-08T04:55:34.008Z,-92
2017-01-08T04:56:34.053Z,-92
2017-01-08T04:57:34.019Z,-92
2017-01-08T04:58:34.195Z,-91
2017-01-08T04:59:34.156Z,-92
2017-01-08T05:00:34.034Z,-92
2017-01-08T05:01:34.165Z,-91
2017-01-08T05:02:34.155Z,-92
2017-01-08T05:03:34.154Z,-91
2017-01-08T05:04:34.208Z,-91
2017-01-08T05:05:34.154Z,-92
2017-01-08T05:06:34.035Z,-91
2017-01-08T05:07:34.101Z,-91
2017-01-08T05:08:34.181Z,-91
2017-01-08T05:09:34.232Z,-92
2017-01-08T05:10:34.198Z,-91
2017-01-08T05:11:34.182Z,-91
2017-01-08T05:12:34.200Z,-91
2017-01-08T05:13:34.128Z,-91
2017-01-08T05:14:34.199Z,-91
2017-01-08T05:15:34.062Z,-91
2017-01-08T05:16:34.130Z,-92
2017-01-08T05:17:34.203Z,-91
2017-01-08T05:18:34.324Z,-91
2017-01-08T05:19:34.290Z,-91
2017-01-08T05:20:34.139Z,-91
2017-01-08T05:21:34.200Z,-91
2017-01-08T05:22:34.198Z,-91
2017-01-08T05:23:34.157Z,-91
2017-01-08T05:24:34.219Z,-91
2017-01-08T05:25:34.093Z,-91
2017-01-08T05:26:34.142Z,-91
2017-01-08T05:27:34.223Z,-91
2017-01-08T05:28:34.139Z,-91
2017-01-08T05:29:34.110Z,-90
2017-01-08T05:30:34.234Z,-91
2017-01-08T05:31:34.174Z,-91
2017-01-08T05:32:34.109Z,-91
2017-01-08T05:33:34.237Z,-91
2017-01-08T05:34:34.123Z,-91
2017-01-08T05:35:34.319Z,-91
2017-01-08T05:36:34.335Z,-91
2017-01-08T05:37:34.236Z,-91
2017-01-08T05:38:34.195Z,-91
2017-01-08T05:39:34.228Z,-91
2017-01-08T05:40:34.332Z,-91
2017-01-08T05:41:34.244Z,-92
2017-01-08T05:42:34.310Z,-91
2017-01-08T05:43:34.141Z,-91
2017-01-08T05:44:34.259Z,-91
2017-01-08T05:45:34.164Z,-92
2017-01-08T05:46:34.348Z,-92
2017-01-08T05:47:34.208Z,-91
2017-01-08T05:48:34.271Z,-91
2017-01-08T05:49:34.371Z,-91
2017-01-08T05:50:34.358Z,-92
2017-01-08T05:51:34.364Z,-91
2017-01-08T05:52:34.336Z,-91
2017-01-08T05:53:34.177Z,-92
2017-01-08T05:54:34.223Z,-91
2017-01-08T05:55:34.291Z,-92
2017-01-08T05:56:34.185Z,-91
2017-01-08T05:57:34.299Z,-91
2017-01-08T05:58:34.294Z,-91
2017-01-08T05:59:34.303Z,-91
2017-01-08T06:00:34.281Z,-91
2017-01-08T06:01:34.375Z,-91
2017-01-08T06:02:34.310Z,-92
2017-01-08T06:03:34.317Z,-91
2017-01-08T06:04:34.256Z,-92
2017-01-08T06:05:34.333Z,-92
2017-01-08T06:06:34.278Z,-91
2017-01-08T06:07:34.654Z,-91
2017-01-08T06:08:34.318Z,-92
2017-01-08T06:09:34.267Z,-91
2017-01-08T06:10:34.293Z,-91
2017-01-08T06:11:34.442Z,-91
2017-01-08T06:12:34.334Z,-91
2017-01-08T06:13:34.345Z,-90
2017-01-08T06:14:34.298Z,-91
2017-01-08T06:15:34.242Z,-91
2017-01-08T06:16:34.247Z,-90
2017-01-08T06:17:34.368Z,-91
2017-01-08T06:18:34.409Z,-90
2017-01-08T06:19:34.369Z,-90
2017-01-08T06:20:34.416Z,-92
2017-01-08T06:21:34.296Z,-92
2017-01-08T06:22:34.315Z,-91
2017-01-08T06:23:34.533Z,-91
2017-01-08T06:24:34.422Z,-92
2017-01-08T06:25:34.251Z,-92
2017-01-08T06:26:34.298Z,-92
2017-01-08T06:27:34.314Z,-92
2017-01-08T06:28:34.398Z,-92
2017-01-08T06:29:34.380Z,-93
2017-01-08T06:30:34.325Z,-92
2017-01-08T06:31:34.336Z,-92
2017-01-08T06:32:34.427Z,-93
2017-01-08T06:33:34.439Z,-92
2017-01-08T06:34:34.411Z,-92
2017-01-08T06:35:34.398Z,-92
2017-01-08T06:36:34.485Z,-92
2017-01-08T06:37:34.286Z,-92
2017-01-08T06:38:34.485Z,-92
2017-01-08T06:39:34.550Z,-91
2017-01-08T06:40:34.421Z,-92
2017-01-08T06:41:34.418Z,-92
2017-01-08T06:42:34.388Z,-93
2017-01-08T06:43:34.427Z,-93
2017-01-08T06:44:34.448Z,-93
2017-01-08T06:45:34.439Z,-93
2017-01-08T06:46:34.423Z,-93
2017-01-08T06:47:34.380Z,-93
2017-01-08T06:48:34.385Z,-93
2017-01-08T06:49:34.472Z,-93
2017-01-08T06:50:34.327Z,-93
2017-01-08T06:51:34.487Z,-94
2017-01-08T06:52:34.390Z,-93
2017-01-08T06:53:34.387Z,-93
2017-01-08T06:54:34.526Z,-93
2017-01-08T06:55:34.549Z,-94
2017-01-08T06:56:34.463Z,-94
2017-01-08T06:57:34.503Z,-94
2017-01-08T06:58:34.350Z,-94
2017-01-08T06:59:34.418Z,-94
2017-01-08T07:00:34.420Z,-94
2017-01-08T07:01:34.488Z,-94
2017-01-08T07:02:34.465Z,-93
2017-01-08T07:03:34.444Z,-94
2017-01-08T07:04:34.489Z,-93
2017-01-08T07:05:34.504Z,-94
2017-01-08T07:06:34.421Z,-94
2017-01-08T07:07:34.378Z,-94
2017-01-08T07:08:34.382Z,-94
2017-01-08T07:09:34.543Z,-90
2017-01-08T07:10:34.491Z,-88
2017-01-08T07:11:34.490Z,-88
2017-01-08T07:12:34.572Z,-88
2017-01-08T07:13:34.526Z,-88
2017-01-08T07:14:34.529Z,-88
2017-01-08T07:15:34.455Z,-88
2017-01-08T07:16:34.477Z,-88
2017-01-08T07:17:34.390Z,-89
2017-01-08T07:18:34.470Z,-88
2017-01-08T07:19:34.537Z,-88
2017-01-08T07:20:34.476Z,-89
2017-01-08T07:21:34.540Z,-88
2017-01-08T07:22:34.603Z,-88
2017-01-08T07:23:34.531Z,-88
2017-01-08T07:24:34.608Z,-88
2017-01-08T07:25:34.548Z,-88
2017-01-08T07:26:34.514Z,-88
2017-01-08T07:27:34.608Z,-88
2017-01-08T07:28:34.569Z,-88
2017-01-08T07:29:34.495Z,-88
2017-01-08T07:30:34.433Z,-88
2017-01-08T07:31:34.521Z,-89
2017-01-08T07:32:34.470Z,-89
2017-01-08T07:33:34.519Z,-88
2017-01-08T07:34:34.581Z,-89
2017-01-08T07:35:34.575Z,-89
2017-01-08T07:36:34.613Z,-89
2017-01-08T07:37:34.657Z,-89
2017-01-08T07:38:34.455Z,-89
2017-01-08T07:39:34.505Z,-89
2017-01-08T07:40:34.614Z,-89
2017-01-08T07:41:34.598Z,-89
2017-01-08T07:42:34.528Z,-89
2017-01-08T07:43:34.782Z,-89
2017-01-08T07:44:34.616Z,-89
2017-01-08T07:45:34.674Z,-89
2017-01-08T07:46:34.595Z,-89
2017-01-08T07:47:34.480Z,-89
2017-01-08T07:48:34.506Z,-89
2017-01-08T07:49:34.550Z,-89
2017-01-08T07:50:34.608Z,-89
2017-01-08T07:51:34.615Z,-89
2017-01-08T07:52:34.560Z,-89
2017-01-08T07:53:34.515Z,-89
2017-01-08T07:54:34.579Z,-89
2017-01-08T07:55:34.618Z,-89
2017-01-08T07:56:34.573Z,-89
2017-01-08T07:57:34.697Z,-90
2017-01-08T07:58:34.589Z,-89
2017-01-08T07:59:34.608Z,-90
2017-01-08T08:00:34.651Z,-89
2017-01-08T08:01:34.737Z,-90
2017-01-08T08:02:34.650Z,-89
2017-01-08T08:03:34.603Z,-89
2017-01-08T08:04:34.631Z,-89
2017-01-08T08:05:34.737Z,-89
2017-01-08T08:06:34.612Z,-89
2017-01-08T08:07:34.527Z,-89
2017-01-08T08:08:34.547Z,-90
2017-01-08T08:09:34.676Z,-89
2017-01-08T08:10:34.850Z,-89
2017-01-08T08:11:34.628Z,-89
2017-01-08T08:12:34.684Z,-89
2017-01-08T08:13:34.690Z,-89
2017-01-08T08:14:34.690Z,-89
2017-01-08T08:15:34.722Z,-89
2017-01-08T08:16:34.685Z,-89
2017-01-08T08:17:34.635Z,-89
2017-01-08T08:18:34.894Z,-90
2017-01-08T08:19:34.746Z,-89
2017-01-08T08:20:34.637Z,-89
2017-01-08T08:21:34.655Z,-89
2017-01-08T08:22:34.706Z,-89
2017-01-08T08:23:34.640Z,-89
2017-01-08T08:24:34.737Z,-89
2017-01-08T08:25:34.666Z,-89
2017-01-08T08:26:34.644Z,-88
2017-01-08T08:27:34.724Z,-89
2017-01-08T08:28:34.695Z,-89
2017-01-08T08:29:34.632Z,-89
2017-01-08T08:30:34.776Z,-89
2017-01-08T08:31:34.771Z,-89
2017-01-08T08:32:34.728Z,-89
2017-01-08T08:33:34.732Z,-89
2017-01-08T08:34:34.681Z,-89
2017-01-08T08:35:34.601Z,-89
2017-01-08T08:36:34.700Z,-89
2017-01-08T08:37:34.682Z,-89
2017-01-08T08:38:34.736Z,-89
2017-01-08T08:39:34.795Z,-89
2017-01-08T08:40:34.656Z,-89
2017-01-08T08:41:34.855Z,-89
2017-01-08T08:42:34.692Z,-89
2017-01-08T08:43:34.775Z,-89
2017-01-08T08:44:34.772Z,-89
2017-01-08T08:45:34.806Z,-89
2017-01-08T08:46:34.709Z,-89
2017-01-08T08:47:34.728Z,-89
2017-01-08T08:48:34.782Z,-89
2017-01-08T08:49:34.822Z,-90
2017-01-08T08:50:34.672Z,-90
2017-01-08T08:51:34.673Z,-90
2017-01-08T08:52:34.805Z,-90
2017-01-08T08:53:34.838Z,-89
2017-01-08T08:54:34.808Z,-89
2017-01-08T08:55:34.820Z,-90
2017-01-08T08:56:34.859Z,-89
2017-01-08T08:57:34.760Z,-90
2017-01-08T08:58:34.761Z,-89
2017-01-08T08:59:34.821Z,-90
2017-01-08T09:00:34.751Z,-90
2017-01-08T09:01:34.743Z,-90
2017-01-08T09:02:34.750Z,-90
2017-01-08T09:03:34.794Z,-90
2017-01-08T09:04:34.757Z,-89
2017-01-08T09:05:34.826Z,-89
2017-01-08T09:06:34.690Z,-89
2017-01-08T09:07:34.837Z,-89
2017-01-08T09:08:34.879Z,-89
2017-01-08T09:09:34.767Z,-90
2017-01-08T09:10:34.818Z,-90
2017-01-08T09:11:34.797Z,-90
2017-01-08T09:12:34.949Z,-90
2017-01-08T09:13:34.927Z,-90
2017-01-08T09:14:34.792Z,-90
2017-01-08T09:15:34.793Z,-90
2017-01-08T09:16:34.856Z,-91
2017-01-08T09:17:34.801Z,-90
2017-01-08T09:18:34.780Z,-90
2017-01-08T09:19:34.967Z,-90
2017-01-08T09:20:34.863Z,-90
2017-01-08T09:21:34.817Z,-91
2017-01-08T09:22:34.935Z,-90
2017-01-08T09:23:34.806Z,-90
2017-01-08T09:24:34.896Z,-90
2017-01-08T09:25:34.809Z,-91
2017-01-08T09:26:34.828Z,-90
2017-01-08T09:27:34.883Z,-90
2017-01-08T09:28:34.745Z,-91
2017-01-08T09:29:35.097Z,-91
2017-01-08T09:30:34.894Z,-90
2017-01-08T09:31:34.911Z,-91
2017-01-08T09:32:34.829Z,-90
2017-01-08T09:33:34.834Z,-90
2017-01-08T09:34:34.888Z,-90
2017-01-08T09:35:34.909Z,-91
2017-01-08T09:36:34.856Z,-90
2017-01-08T09:37:34.779Z,-91
2017-01-08T09:38:34.931Z,-90
2017-01-08T09:39:34.927Z,-91
2017-01-08T09:40:35.000Z,-91
2017-01-08T09:41:34.981Z,-91
2017-01-08T09:42:34.888Z,-91
2017-01-08T09:43:35.014Z,-90
2017-01-08T09:44:34.806Z,-91
2017-01-08T09:45:34.989Z,-91
2017-01-08T09:46:34.941Z,-91
2017-01-08T09:47:34.866Z,-91
2017-01-08T09:48:34.950Z,-91
2017-01-08T09:49:34.947Z,-91
2017-01-08T09:50:34.870Z,-91
2017-01-08T09:51:34.976Z,-91
2017-01-08T09:52:34.879Z,-90
2017-01-08T09:53:35.000Z,-91
2017-01-08T09:54:34.927Z,-90
2017-01-08T09:55:34.930Z,-91
2017-01-08T09:56:34.963Z,-91
2017-01-08T09:57:34.902Z,-91
2017-01-08T09:58:34.913Z,-90
2017-01-08T09:59:34.901Z,-90
2017-01-08T10:00:34.972Z,-90
2017-01-08T10:01:35.038Z,-91
2017-01-08T10:02:34.928Z,-91
2017-01-08T10:03:34.913Z,-91
2017-01-08T10:04:34.916Z,-90
2017-01-08T10:05:35.045Z,-91
2017-01-08T10:06:34.855Z,-90
2017-01-08T10:07:35.013Z,-91
2017-01-08T10:08:34.907Z,-90
2017-01-08T10:09:34.882Z,-90
2017-01-08T10:10:34.920Z,-91
2017-01-08T10:11:34.874Z,-90
2017-01-08T10:12:35.093Z,-91
2017-01-08T10:13:35.099Z,-90
2017-01-08T10:14:34.922Z,-91
2017-01-08T10:15:35.073Z,-91
2017-01-08T10:16:34.923Z,-90
2017-01-08T10:17:34.982Z,-91
2017-01-08T10:18:35.084Z,-91
2017-01-08T10:19:34.956Z,-91
2017-01-08T10:20:34.896Z,-90
2017-01-08T10:21:35.088Z,-91
2017-01-08T10:22:34.973Z,-91
2017-01-08T10:23:35.080Z,-90
2017-01-08T10:24:34.961Z,-90
2017-01-08T10:25:35.035Z,-90
2017-01-08T10:26:34.972Z,-91
2017-01-08T10:27:34.981Z,-91
2017-01-08T10:28:34.993Z,-90
2017-01-08T10:29:35.117Z,-90
2017-01-08T10:30:35.101Z,-91
2017-01-08T10:31:34.960Z,-91
2017-01-08T10:32:34.994Z,-91
2017-01-08T10:33:35.090Z,-91
2017-01-08T10:34:35.079Z,-91
2017-01-08T10:35:35.071Z,-91
2017-01-08T10:36:35.013Z,-90
2017-01-08T10:37:34.995Z,-91
2017-01-08T10:38:35.073Z,-90
2017-01-08T10:39:35.117Z,-90
2017-01-08T10:40:35.061Z,-91
2017-01-08T10:41:35.024Z,-91
2017-01-08T10:42:35.071Z,-91
2017-01-08T10:43:35.020Z,-91
2017-01-08T10:44:35.084Z,-90
2017-01-08T10:45:35.090Z,-90
2017-01-08T10:46:35.169Z,-90
2017-01-08T10:47:35.100Z,-90
2017-01-08T10:48:34.981Z,-91
2017-01-08T10:49:35.055Z,-90
2017-01-08T10:50:35.022Z,-90
2017-01-08T10:51:35.101Z,-90
2017-01-08T10:52:35.145Z,-90
2017-01-08T10:53:35.133Z,-91
2017-01-08T10:54:35.112Z,-90
2017-01-08T10:55:35.161Z,-90
2017-01-08T10:56:35.030Z,-90
2017-01-08T10:57:35.140Z,-90
2017-01-08T10:58:35.048Z,-90
2017-01-08T10:59:35.062Z,-90
2017-01-08T11:00:35.076Z,-90
2017-01-08T11:01:35.086Z,-90
2017-01-08T11:02:35.116Z,-90
2017-01-08T11:03:35.133Z,-90
2017-01-08T11:04:35.033Z,-90
2017-01-08T11:05:35.142Z,-90
2017-01-08T11:06:35.096Z,-89
2017-01-08T11:07:35.157Z,-89
2017-01-08T11:08:35.101Z,-90
2017-01-08T11:09:35.207Z,-89
2017-01-08T11:10:35.087Z,-89
2017-01-08T11:11:35.119Z,-90
2017-01-08T11:12:35.158Z,-90
2017-01-08T11:13:35.163Z,-89
2017-01-08T11:14:35.042Z,-90
2017-01-08T11:15:35.141Z,-90
2017-01-08T11:16:35.183Z,-89
2017-01-08T11:17:35.168Z,-89
2017-01-08T11:18:35.193Z,-89
2017-01-08T11:19:35.075Z,-89
2017-01-08T11:20:35.135Z,-89
2017-01-08T11:21:35.135Z,-89
2017-01-08T11:22:35.139Z,-89
2017-01-08T11:23:35.223Z,-89
2017-01-08T11:24:35.197Z,-89
2017-01-08T11:25:35.238Z,-89
2017-01-08T11:26:35.088Z,-89
2017-01-08T11:27:35.307Z,-89
2017-01-08T11:28:35.215Z,-89
2017-01-08T11:29:35.158Z,-90
2017-01-08T11:30:35.203Z,-89
2017-01-08T11:31:35.249Z,-89
2017-01-08T11:32:35.170Z,-89
2017-01-08T11:33:35.199Z,-89
2017-01-08T11:34:35.250Z,-90
2017-01-08T11:35:35.227Z,-88
2017-01-08T11:36:35.115Z,-89
2017-01-08T11:37:35.323Z,-89
2017-01-08T11:38:35.237Z,-89
2017-01-08T11:39:35.112Z,-89
2017-01-08T11:40:35.237Z,-89
2017-01-08T11:41:35.282Z,-88
2017-01-08T11:42:35.308Z,-89
2017-01-08T11:43:35.516Z,-89
2017-01-08T11:44:35.183Z,-89
2017-01-08T11:45:35.302Z,-89
2017-01-08T11:46:35.328Z,-89
2017-01-08T11:47:35.223Z,-89
2017-01-08T11:48:35.279Z,-90
2017-01-08T11:49:35.293Z,-89
2017-01-08T11:50:35.247Z,-89
2017-01-08T11:51:35.194Z,-89
2017-01-08T11:52:35.205Z,-89
2017-01-08T11:53:35.315Z,-89
2017-01-08T11:54:35.307Z,-87
2017-01-08T11:55:35.336Z,-89
2017-01-08T11:56:35.308Z,-89
2017-01-08T11:57:35.213Z,-89
2017-01-08T11:58:35.291Z,-89
2017-01-08T11:59:35.379Z,-89
2017-01-08T12:00:35.251Z,-90
2017-01-08T12:01:35.242Z,-89
2017-01-08T12:02:35.299Z,-90
2017-01-08T12:03:35.264Z,-90
2017-01-08T12:04:35.333Z,-89
2017-01-08T12:05:35.260Z,-90
2017-01-08T12:06:35.232Z,-90
2017-01-08T12:07:35.328Z,-89
2017-01-08T12:08:35.299Z,-90
2017-01-08T12:09:35.321Z,-89
2017-01-08T12:10:35.331Z,-90
2017-01-08T12:11:35.333Z,-90
2017-01-08T12:12:35.266Z,-90
2017-01-08T12:13:35.453Z,-89
2017-01-08T12:14:35.415Z,-90
2017-01-08T12:15:35.387Z,-89
2017-01-08T12:16:35.289Z,-90
2017-01-08T12:17:35.428Z,-90
2017-01-08T12:18:35.244Z,-89
2017-01-08T12:19:35.435Z,-89
2017-01-08T12:20:35.489Z,-89
2017-01-08T12:21:35.343Z,-89
2017-01-08T12:22:35.233Z,-89
2017-01-08T12:23:35.344Z,-88
2017-01-08T12:24:35.358Z,-89
2017-01-08T12:25:35.357Z,-89
2017-01-08T12:26:35.415Z,-89
2017-01-08T12:27:35.301Z,-89
2017-01-08T12:28:35.311Z,-89
2017-01-08T12:29:35.252Z,-90
2017-01-08T12:30:35.382Z,-89
2017-01-08T12:31:35.331Z,-90
2017-01-08T12:32:35.337Z,-89
2017-01-08T12:33:35.472Z,-90
2017-01-08T12:34:35.460Z,-89
2017-01-08T12:35:35.273Z,-89
2017-01-08T12:36:35.411Z,-89
2017-01-08T12:37:35.407Z,-90
2017-01-08T12:38:35.336Z,-90
2017-01-08T12:39:35.285Z,-89
2017-01-08T12:40:35.382Z,-89
2017-01-08T12:41:35.353Z,-89
2017-01-08T12:42:35.369Z,-90
2017-01-08T12:43:35.530Z,-89
2017-01-08T12:44:35.471Z,-89
2017-01-08T12:45:35.451Z,-89
2017-01-08T12:46:35.474Z,-89
2017-01-08T12:47:35.335Z,-89
2017-01-08T12:48:35.494Z,-89
2017-01-08T12:49:35.446Z,-89
2017-01-08T12:50:35.421Z,-90
2017-01-08T12:51:35.429Z,-89
2017-01-08T12:52:35.423Z,-89
2017-01-08T12:53:35.383Z,-90
2017-01-08T12:54:35.396Z,-90
2017-01-08T12:55:35.391Z,-89
2017-01-08T12:56:35.478Z,-89
2017-01-08T12:57:35.354Z,-89
2017-01-08T12:58:35.320Z,-89
2017-01-08T12:59:35.352Z,-89
2017-01-08T13:00:35.406Z,-89
2017-01-08T13:01:35.431Z,-89
2017-01-08T13:02:35.408Z,-89
2017-01-08T13:03:35.424Z,-89
2017-01-08T13:04:35.531Z,-89
2017-01-08T13:05:35.432Z,-89
2017-01-08T13:06:35.427Z,-89
2017-01-08T13:07:35.498Z,-89
2017-01-08T13:08:35.518Z,-89
2017-01-08T13:09:35.539Z,-89
2017-01-08T13:10:35.439Z,-89
2017-01-08T13:11:35.494Z,-89
2017-01-08T13:12:35.389Z,-89
2017-01-08T13:13:35.516Z,-89
2017-01-08T13:14:35.566Z,-89
2017-01-08T13:15:35.443Z,-89
2017-01-08T13:16:35.569Z,-89
2017-01-08T13:17:35.582Z,-89
2017-01-08T13:18:35.439Z,-89
2017-01-08T13:19:35.611Z,-89
2017-01-08T13:20:35.456Z,-89
2017-01-08T13:21:35.454Z,-89
2017-01-08T13:22:35.560Z,-89
2017-01-08T13:23:35.399Z,-89
2017-01-08T13:24:35.487Z,-89
2017-01-08T13:25:35.401Z,-89
2017-01-08T13:26:35.516Z,-89
2017-01-08T13:27:35.550Z,-89
2017-01-08T13:28:35.537Z,-88
2017-01-08T13:29:35.544Z,-89
2017-01-08T13:30:35.490Z,-89
2017-01-08T13:31:35.544Z,-89
2017-01-08T13:32:35.501Z,-90
2017-01-08T13:33:35.557Z,-90
2017-01-08T13:34:35.459Z,-89
2017-01-08T13:35:35.519Z,-89
2017-01-08T13:36:35.429Z,-89
2017-01-08T13:37:35.553Z,-89
2017-01-08T13:38:35.574Z,-88
2017-01-08T13:39:35.580Z,-88
2017-01-08T13:40:35.585Z,-89
2017-01-08T13:41:35.592Z,-89
2017-01-08T13:42:35.660Z,-88
2017-01-08T13:43:35.575Z,-89
2017-01-08T13:44:35.600Z,-88
2017-01-08T13:45:35.664Z,-89
2017-01-08T13:46:35.588Z,-89
2017-01-08T13:47:35.696Z,-88
2017-01-08T13:48:35.473Z,-89